createdAt,value
2018-08-24T00:00:37.812Z,99.90
2018-08-24T00:03:07.100Z,99.90
2018-08-24T00:05:36.633Z,99.90
2018-08-24T00:08:06.125Z,99.90
2018-08-24T00:10:35.378Z,99.90
2018-08-24T00:13:06.115Z,99.90
2018-08-24T00:15:35.627Z,99.90
2018-08-24T00:18:04.847Z,99.90
2018-08-24T00:20:34.340Z,99.90
2018-08-24T00:23:03.837Z,99.90
2018-08-24T00:25:39.968Z,99.90
2018-08-24T00:28:09.557Z,99.90
2018-08-24T00:30:39.388Z,99.90
2018-08-24T00:33:08.583Z,99.90
2018-08-24T00:35:37.680Z,99.90
2018-08-24T00:38:07.280Z,99.90
2018-08-24T00:41:33.544Z,99.90
2018-08-24T00:44:03.656Z,99.90
2018-08-24T00:46:34.249Z,99.90
2018-08-24T00:49:03.851Z,99.90
2018-08-24T00:51:35.148Z,99.90
2018-08-24T00:54:04.550Z,99.90
2018-08-24T00:57:02.361Z,99.90
2018-08-24T00:59:33.704Z,99.90
2018-08-24T01:02:03.884Z,99.90
2018-08-24T01:04:35.220Z,99.90
2018-08-24T01:07:09.810Z,99.90
2018-08-24T01:09:40.193Z,99.90
2018-08-24T01:12:36.670Z,99.90
2018-08-24T01:18:46.444Z,99.90
2018-08-24T01:21:15.759Z,99.90
2018-08-24T01:23:45.082Z,99.90
2018-08-24T01:26:18.355Z,99.90
2018-08-24T01:28:47.625Z,99.90
2018-08-24T01:31:16.275Z,99.90
2018-08-24T01:33:45.234Z,99.90
2018-08-24T01:36:14.389Z,99.90
2018-08-24T01:39:02.156Z,99.90
2018-08-24T01:41:33.853Z,99.90
2018-08-24T01:44:15.655Z,99.90
2018-08-24T01:46:45.184Z,99.90
2018-08-24T01:49:14.343Z,99.90
2018-08-24T01:51:43.963Z,99.90
2018-08-24T01:54:13.078Z,99.90
2018-08-24T01:56:42.261Z,99.90
2018-08-24T01:59:12.238Z,99.90
2018-08-24T02:01:41.853Z,99.90
2018-08-24T02:04:11.181Z,99.90
2018-08-24T02:07:06.096Z,99.90
2018-08-24T02:09:35.438Z,99.90
2018-08-24T02:12:05.081Z,99.90
2018-08-24T02:14:39.416Z,99.90
2018-08-24T02:17:12.941Z,99.90
2018-08-24T02:19:47.283Z,99.90
2018-08-24T02:22:16.642Z,99.90
2018-08-24T02:24:45.698Z,99.90
2018-08-24T02:27:14.737Z,99.90
2018-08-24T02:29:43.957Z,99.90
2018-08-24T02:32:13.032Z,99.90
2018-08-24T02:34:42.156Z,99.90
2018-08-24T02:37:11.656Z,99.90
2018-08-24T02:39:40.841Z,99.90
2018-08-24T02:42:10.173Z,99.90
2018-08-24T02:44:39.186Z,99.90
2018-08-24T02:47:21.123Z,99.90
2018-08-24T02:49:49.698Z,99.90
2018-08-24T02:52:18.236Z,99.90
2018-08-24T02:54:46.889Z,99.90
2018-08-24T02:57:17.315Z,99.90
2018-08-24T02:59:46.700Z,99.90
2018-08-24T03:02:15.865Z,99.90
2018-08-24T03:04:44.843Z,99.90
2018-08-24T03:07:42.799Z,99.90
2018-08-24T03:10:11.958Z,99.90
2018-08-24T03:12:41.257Z,99.90
2018-08-24T03:15:10.474Z,99.90
2018-08-24T03:17:45.251Z,99.90
2018-08-24T03:20:14.342Z,99.90
2018-08-24T03:22:43.490Z,99.90
2018-08-24T03:25:12.804Z,99.90
2018-08-24T03:27:41.359Z,99.90
2018-08-24T03:30:10.411Z,99.90
2018-08-24T03:32:40.144Z,99.90
2018-08-24T03:35:09.455Z,99.90
2018-08-24T03:37:38.902Z,99.90
2018-08-24T03:40:08.071Z,99.90
2018-08-24T03:42:37.422Z,99.90
2018-08-24T03:45:08.983Z,99.90
2018-08-24T03:48:15.093Z,99.90
2018-08-24T03:50:44.511Z,99.90
2018-08-24T03:53:13.961Z,99.90
2018-08-24T03:55:43.940Z,99.90
2018-08-24T03:58:13.692Z,99.90
2018-08-24T04:00:42.838Z,99.90
2018-08-24T04:03:12.209Z,99.90
2018-08-24T04:05:45.300Z,99.90
2018-08-24T04:08:14.784Z,99.90
2018-08-24T04:10:44.041Z,99.90
2018-08-24T04:13:32.718Z,99.90
2018-08-24T04:16:04.871Z,99.90
2018-08-24T04:18:35.078Z,99.90
2018-08-24T04:21:05.151Z,99.90
2018-08-24T04:23:34.565Z,99.90
2018-08-24T04:26:09.059Z,99.90
2018-08-24T04:28:38.403Z,99.90
2018-08-24T04:31:07.693Z,99.90
2018-08-24T04:33:36.946Z,99.90
2018-08-24T04:36:06.219Z,99.90
2018-08-24T04:49:50.499Z,99.90
2018-08-24T04:59:11.122Z,99.90
2018-08-24T05:01:40.541Z,99.90
2018-08-24T05:04:10.457Z,99.90
2018-08-24T05:06:39.637Z,99.90
2018-08-24T05:09:12.396Z,99.90
2018-08-24T05:11:41.715Z,99.90
2018-08-24T05:14:12.590Z,99.90
2018-08-24T05:16:41.814Z,99.90
2018-08-24T05:19:11.118Z,99.90
2018-08-24T05:21:40.269Z,99.90
2018-08-24T05:24:09.569Z,99.90
2018-08-24T05:26:42.727Z,99.90
2018-08-24T05:29:11.977Z,99.90
2018-08-24T05:31:41.351Z,99.90
2018-08-24T05:34:10.599Z,99.90
2018-08-24T05:36:42.982Z,99.90
2018-08-24T05:39:12.400Z,99.90
2018-08-24T05:41:41.764Z,99.90
2018-08-24T05:44:11.038Z,99.90
2018-08-24T05:46:42.514Z,99.90
2018-08-24T05:49:11.632Z,99.90
2018-08-24T05:51:41.120Z,99.90
2018-08-24T05:54:10.511Z,99.90
2018-08-24T05:56:39.749Z,99.90
2018-08-24T05:59:09.096Z,99.90
2018-08-24T06:01:38.402Z,99.90
2018-08-24T06:04:07.604Z,99.90
2018-08-24T06:06:36.862Z,99.90
2018-08-24T06:09:15.193Z,99.90
2018-08-24T06:11:44.131Z,99.90
2018-08-24T06:14:14.198Z,99.90
2018-08-24T06:16:50.503Z,99.90
2018-08-24T06:19:19.819Z,99.90
2018-08-24T06:21:48.458Z,99.90
2018-08-24T06:24:17.744Z,99.90
2018-08-24T06:26:47.946Z,99.90
2018-08-24T06:29:16.894Z,99.90
2018-08-24T06:31:46.164Z,99.90
2018-08-24T06:34:16.213Z,99.90
2018-08-24T06:36:46.739Z,99.90
2018-08-24T06:39:16.059Z,99.90
2018-08-24T06:41:45.514Z,99.90
2018-08-24T06:44:14.661Z,99.90
2018-08-24T06:46:44.416Z,99.90
2018-08-24T06:49:13.854Z,99.90
2018-08-24T06:51:43.273Z,99.90
2018-08-24T06:54:12.780Z,99.90
2018-08-24T06:56:42.361Z,99.90
2018-08-24T06:59:11.975Z,99.90
2018-08-24T07:01:41.899Z,99.90
2018-08-24T07:04:11.416Z,99.90
2018-08-24T07:06:40.897Z,99.90
2018-08-24T07:09:10.820Z,99.90
2018-08-24T07:11:40.124Z,99.90
2018-08-24T07:14:12.097Z,99.90
2018-08-24T07:16:41.856Z,99.90
2018-08-24T07:19:11.109Z,98.60
2018-08-24T07:21:40.690Z,99.20
2018-08-24T07:24:10.715Z,98.00
2018-08-24T07:26:40.164Z,95.70
2018-08-24T07:30:06.318Z,96.10
2018-08-24T07:32:37.997Z,96.80
2018-08-24T07:35:20.374Z,98.00
2018-08-24T07:37:49.042Z,98.90
2018-08-24T07:40:17.992Z,99.90
2018-08-24T07:42:47.130Z,99.20
2018-08-24T07:45:16.203Z,98.70
2018-08-24T07:47:45.874Z,98.40
2018-08-24T07:50:15.249Z,97.90
2018-08-24T07:52:44.506Z,98.10
2018-08-24T07:55:13.931Z,98.60
2018-08-24T07:57:43.661Z,99.20
2018-08-24T08:00:13.307Z,99.90
2018-08-24T08:02:45.945Z,99.80
2018-08-24T08:05:16.185Z,99.80
2018-08-24T08:07:45.705Z,99.90
2018-08-24T08:11:47.287Z,99.90
2018-08-24T08:14:16.591Z,99.90
2018-08-24T08:20:12.325Z,99.30
2018-08-24T08:22:41.758Z,98.40
2018-08-24T08:25:11.491Z,98.30
2018-08-24T08:30:36.202Z,97.30
2018-08-24T08:36:35.973Z,94.60
2018-08-24T08:42:07.751Z,93.20
2018-08-24T08:44:37.392Z,94.20
2018-08-24T08:47:06.825Z,94.10
2018-08-24T08:53:17.637Z,92.60
2018-08-24T08:55:47.608Z,91.00
2018-08-24T08:58:35.088Z,88.90
2018-08-24T09:01:18.936Z,86.40
2018-08-24T09:03:47.948Z,80.50
2018-08-24T09:06:18.672Z,77.20
2018-08-24T09:08:48.273Z,76.90
2018-08-24T09:11:18.837Z,74.70
2018-08-24T09:13:47.982Z,74.00
2018-08-24T09:16:18.163Z,75.40
2018-08-24T09:18:52.653Z,74.30
2018-08-24T09:21:30.636Z,76.50
2018-08-24T09:24:10.528Z,75.80
2018-08-24T09:26:46.335Z,77.80
2018-08-24T09:29:20.628Z,79.60
2018-08-24T09:31:49.369Z,80.50
2018-08-24T09:34:18.468Z,80.40
2018-08-24T09:36:47.696Z,80.70
2018-08-24T09:39:17.157Z,80.80
2018-08-24T09:41:45.821Z,82.20
2018-08-24T09:44:15.372Z,80.90
2018-08-24T09:46:52.015Z,81.50
2018-08-24T09:49:33.239Z,80.20
2018-08-24T09:52:10.422Z,80.60
2018-08-24T09:54:40.179Z,80.10
2018-08-24T09:57:09.696Z,80.30
2018-08-24T09:59:41.058Z,81.30
2018-08-24T10:02:15.470Z,85.10
2018-08-24T10:04:49.901Z,88.40
2018-08-24T10:07:31.587Z,91.20
2018-08-24T10:10:11.440Z,93.30
2018-08-24T10:13:12.290Z,94.90
2018-08-24T10:15:51.814Z,96.10
2018-08-24T10:22:20.531Z,93.70
2018-08-24T10:25:05.445Z,93.90
2018-08-24T10:27:40.853Z,93.00
2018-08-24T10:50:06.376Z,90.00
2018-08-24T10:52:41.139Z,90.40
2018-08-24T10:55:11.399Z,87.00
2018-08-24T10:58:15.473Z,83.50
2018-08-24T11:00:44.351Z,79.20
2018-08-24T11:03:12.989Z,76.10
2018-08-24T11:05:41.651Z,76.40
2018-08-24T11:08:14.837Z,77.20
2018-08-24T11:10:43.477Z,78.40
2018-08-24T11:13:18.050Z,79.30
2018-08-24T11:16:05.472Z,79.60
2018-08-24T11:18:42.029Z,83.90
2018-08-24T11:21:11.660Z,83.30
2018-08-24T11:23:41.547Z,79.20
2018-08-24T11:26:11.585Z,79.70
2018-08-24T11:28:41.200Z,80.30
2018-08-24T11:31:11.269Z,81.00
2018-08-24T11:33:42.017Z,81.30
2018-08-24T11:36:11.615Z,79.50
2018-08-24T11:39:31.553Z,79.50
2018-08-24T11:42:11.330Z,78.10
2018-08-24T11:44:41.635Z,76.80
2018-08-24T11:50:09.378Z,73.10
2018-08-24T11:52:40.849Z,73.60
2018-08-24T12:02:34.277Z,72.00
2018-08-24T12:05:04.297Z,71.70
2018-08-24T12:14:38.069Z,68.20
2018-08-24T12:20:41.680Z,64.30
2018-08-24T12:26:58.920Z,61.10
2018-08-24T12:29:35.420Z,58.50
2018-08-24T12:32:09.674Z,57.30
2018-08-24T12:47:43.626Z,59.40
2018-08-24T13:02:40.001Z,62.80
2018-08-24T13:09:12.919Z,64.40
2018-08-24T13:11:42.350Z,65.10
2018-08-24T13:17:40.787Z,65.10
2018-08-24T13:27:12.625Z,68.70
2018-08-24T14:11:40.496Z,57.80
2018-08-24T14:14:09.725Z,56.80
2018-08-24T14:16:40.268Z,53.40
2018-08-24T14:19:43.728Z,51.30
2018-08-24T14:29:36.266Z,51.90
2018-08-24T14:39:25.239Z,52.90
2018-08-24T14:42:09.100Z,51.80
2018-08-24T15:04:56.611Z,52.70
2018-08-24T15:07:28.220Z,52.50
2018-08-24T15:09:57.330Z,51.60
2018-08-24T15:12:27.308Z,51.80
2018-08-24T15:14:57.273Z,51.50
2018-08-24T15:17:28.020Z,52.30
2018-08-24T15:19:57.428Z,52.80
2018-08-24T15:22:27.208Z,52.90
2018-08-24T15:24:57.518Z,53.70
2018-08-24T15:27:27.585Z,53.90
2018-08-24T15:29:57.368Z,54.20
2018-08-24T15:32:27.795Z,54.70
2018-08-24T15:34:57.711Z,55.20
2018-08-24T15:37:27.791Z,56.20
2018-08-24T15:39:57.786Z,56.60
2018-08-24T15:42:27.439Z,58.50
2018-08-24T15:44:57.200Z,59.00
2018-08-24T15:47:33.841Z,60.00
2018-08-24T15:50:02.781Z,61.40
2018-08-24T15:52:32.048Z,61.80
2018-08-24T15:55:01.490Z,62.90
2018-08-24T15:57:30.966Z,63.50
2018-08-24T16:00:00.723Z,64.70
2018-08-24T16:02:30.396Z,64.80
2018-08-24T16:05:00.086Z,64.40
2018-08-24T16:07:31.095Z,64.20
2018-08-24T16:10:00.546Z,63.90
2018-08-24T16:12:30.718Z,64.80
2018-08-24T16:15:00.545Z,64.80
2018-08-24T16:17:30.387Z,64.90
2018-08-24T16:19:59.569Z,65.50
2018-08-24T16:22:28.980Z,66.60
2018-08-24T16:24:59.465Z,65.40
2018-08-24T16:27:29.430Z,65.30
2018-08-24T16:29:58.915Z,66.40
2018-08-24T16:32:28.573Z,65.40
2018-08-24T16:34:58.251Z,65.30
2018-08-24T16:37:28.163Z,65.50
2018-08-24T16:39:57.367Z,64.70
2018-08-24T16:42:41.661Z,60.50
2018-08-24T16:45:10.575Z,58.30
2018-08-24T16:47:39.803Z,56.90
2018-08-24T16:50:09.069Z,55.20
2018-08-24T16:52:38.372Z,55.30
2018-08-24T16:55:08.606Z,55.30
2018-08-24T16:57:39.851Z,55.10
2018-08-24T17:00:09.584Z,55.20
2018-08-24T17:02:38.471Z,54.20
2018-08-24T17:05:08.131Z,54.10
2018-08-24T17:07:39.169Z,53.50
2018-08-24T17:10:08.988Z,53.70
2018-08-24T17:12:38.514Z,54.30
2018-08-24T17:15:09.526Z,55.00
2018-08-24T17:17:39.083Z,55.20
2018-08-24T17:20:08.444Z,55.10
2018-08-24T17:22:41.085Z,55.40
2018-08-24T17:25:10.231Z,56.00
2018-08-24T17:27:39.869Z,56.50
2018-08-24T17:30:09.572Z,56.50
2018-08-24T17:32:39.322Z,56.60
2018-08-24T17:35:08.627Z,56.70
2018-08-24T17:37:38.104Z,57.40
2018-08-24T17:40:07.501Z,57.50
2018-08-24T17:42:37.226Z,58.30
2018-08-24T17:45:07.844Z,58.50
2018-08-24T17:47:37.149Z,59.40
2018-08-24T17:50:07.264Z,60.30
2018-08-24T17:52:36.928Z,61.50
2018-08-24T17:55:06.599Z,61.40
2018-08-24T17:57:37.182Z,62.50
2018-08-24T18:00:07.365Z,63.50
2018-08-24T18:02:37.189Z,65.20
2018-08-24T18:05:07.594Z,65.70
2018-08-24T18:07:37.015Z,66.10
2018-08-24T18:10:06.482Z,67.30
2018-08-24T18:12:35.082Z,68.50
2018-08-24T18:15:04.757Z,68.90
2018-08-24T18:17:33.380Z,69.60
2018-08-24T18:20:06.761Z,70.80
2018-08-24T18:22:35.937Z,71.10
2018-08-24T18:25:05.411Z,72.40
2018-08-24T18:27:36.533Z,72.60
2018-08-24T18:30:05.627Z,73.60
2018-08-24T18:32:34.670Z,74.10
2018-08-24T18:35:04.231Z,74.80
2018-08-24T18:37:34.551Z,75.80
2018-08-24T18:40:04.243Z,76.00
2018-08-24T18:42:33.684Z,78.00
2018-08-24T18:45:03.246Z,78.30
2018-08-24T18:47:32.563Z,78.70
2018-08-24T18:50:02.364Z,79.10
2018-08-24T18:52:31.897Z,79.40
2018-08-24T18:55:00.841Z,80.70
2018-08-24T18:57:30.528Z,81.10
2018-08-24T19:00:01.396Z,81.90
2018-08-24T19:02:32.587Z,82.90
2018-08-24T19:05:01.221Z,83.80
2018-08-24T19:07:31.067Z,84.10
2018-08-24T19:10:00.360Z,84.50
2018-08-24T19:12:30.965Z,85.30
2018-08-24T19:15:00.307Z,86.10
2018-08-24T19:17:35.832Z,87.50
2018-08-24T19:20:10.148Z,88.00
2018-08-24T19:22:43.142Z,88.70
2018-08-24T19:25:11.795Z,89.30
2018-08-24T19:27:46.095Z,89.70
2018-08-24T19:30:22.904Z,90.00
2018-08-24T19:32:55.570Z,90.00
2018-08-24T19:35:26.319Z,90.50
2018-08-24T19:37:56.876Z,90.80
2018-08-24T19:40:32.565Z,90.90
2018-08-24T19:43:01.992Z,91.20
2018-08-24T19:45:31.784Z,91.50
2018-08-24T19:48:06.215Z,91.50
2018-08-24T19:50:35.248Z,91.70
2018-08-24T19:53:04.528Z,92.00
2018-08-24T19:55:34.082Z,92.10
2018-08-24T19:58:08.687Z,92.60
2018-08-24T20:00:37.727Z,92.90
2018-08-24T20:03:06.926Z,92.90
2018-08-24T20:05:36.627Z,93.30
2018-08-24T20:08:11.308Z,93.40
2018-08-24T20:10:39.977Z,93.70
2018-08-24T20:13:08.599Z,94.10
2018-08-24T20:15:42.599Z,94.00
2018-08-24T20:18:11.253Z,94.60
2018-08-24T20:20:39.947Z,94.60
2018-08-24T20:23:08.864Z,94.70
2018-08-24T20:25:38.725Z,94.80
2018-08-24T20:28:07.835Z,94.80
2018-08-24T20:30:36.737Z,95.00
2018-08-24T20:33:06.621Z,95.00
2018-08-24T20:35:35.667Z,95.30
2018-08-24T20:38:06.621Z,95.50
2018-08-24T20:40:35.798Z,95.60
2018-08-24T20:43:05.119Z,95.70
2018-08-24T20:45:35.621Z,95.30
2018-08-24T20:48:05.499Z,95.20
2018-08-24T20:50:35.298Z,95.10
2018-08-24T20:53:05.217Z,94.80
2018-08-24T20:55:34.889Z,94.90
2018-08-24T20:58:04.223Z,94.60
2018-08-24T21:00:33.889Z,94.70
2018-08-24T21:03:05.796Z,94.80
2018-08-24T21:05:35.055Z,94.90
2018-08-24T21:08:05.046Z,94.70
2018-08-24T21:10:35.238Z,94.60
2018-08-24T21:13:05.142Z,94.70
2018-08-24T21:15:37.343Z,94.80
2018-08-24T21:18:07.416Z,94.70
2018-08-24T21:20:40.320Z,94.70
2018-08-24T21:23:09.392Z,94.90
2018-08-24T21:25:38.775Z,95.10
2018-08-24T21:28:08.038Z,95.00
2018-08-24T21:30:37.156Z,94.90
2018-08-24T21:33:07.341Z,95.30
2018-08-24T21:35:37.646Z,95.40
2018-08-24T21:38:07.816Z,95.50
2018-08-24T21:40:37.261Z,95.80
2018-08-24T21:43:07.410Z,95.90
2018-08-24T21:45:36.939Z,96.20
2018-08-24T21:48:06.060Z,96.20
2018-08-24T21:50:35.456Z,96.40
2018-08-24T21:53:04.592Z,96.40
2018-08-24T21:55:34.217Z,96.50
2018-08-24T21:58:03.761Z,96.50
2018-08-24T22:00:37.148Z,96.60
2018-08-24T22:03:06.495Z,96.60
2018-08-24T22:05:35.964Z,96.70
2018-08-24T22:08:05.822Z,96.90
2018-08-24T22:10:35.705Z,97.10
2018-08-24T22:13:05.189Z,97.10
2018-08-24T22:15:34.756Z,97.50
2018-08-24T22:18:04.826Z,97.60
2018-08-24T22:20:34.375Z,97.80
2018-08-24T22:23:04.881Z,98.00
2018-08-24T22:25:34.205Z,98.10
2018-08-24T22:28:04.350Z,98.20
2018-08-24T22:30:33.827Z,98.30
2018-08-24T22:33:03.018Z,98.40
2018-08-24T22:35:32.676Z,98.70
2018-08-24T22:38:01.929Z,99.10
2018-08-24T22:40:31.236Z,99.70
2018-08-24T22:43:00.746Z,99.70
2018-08-24T22:45:32.993Z,99.50
2018-08-24T22:48:02.020Z,99.30
2018-08-24T22:50:31.395Z,99.40
2018-08-24T22:53:00.819Z,99.30
2018-08-24T22:55:30.492Z,99.50
2018-08-24T22:58:00.029Z,99.80
2018-08-24T23:00:29.768Z,99.90
2018-08-24T23:02:59.193Z,99.90
2018-08-24T23:05:28.657Z,99.90
2018-08-24T23:07:59.562Z,99.90
2018-08-24T23:10:29.042Z,99.90
2018-08-24T23:12:58.365Z,99.90
2018-08-24T23:15:27.803Z,99.90
2018-08-24T23:17:57.347Z,99.90
2018-08-24T23:20:26.444Z,99.90
2018-08-24T23:22:55.159Z,99.90
2018-08-24T23:25:24.933Z,99.90
2018-08-24T23:27:56.843Z,99.90
2018-08-24T23:30:27.817Z,99.90
2018-08-24T23:32:57.441Z,99.90
2018-08-24T23:35:27.858Z,99.90
2018-08-24T23:37:57.437Z,99.90
2018-08-24T23:40:27.626Z,99.90
2018-08-24T23:42:58.075Z,99.90
2018-08-24T23:45:28.841Z,99.90
2018-08-24T23:47:58.168Z,99.90
2018-08-24T23:53:42.209Z,99.90
2018-08-24T23:56:11.055Z,99.90
2018-08-24T23:58:39.968Z,99.90
